Time;durP1;ratioP1;P1;durP2;ratioP2;P2;SDS_P1;SDS_P2;PMS_P1;PMS_P2;Temp;Humidity;BMP_temperature;BMP_pressure;BME280_temperature;BME280_humidity;BME280_pressure;Samples;Min_cycle;Max_cycle;Signal;HPM_P1;HPM_P2
2021/04/08 00:00:18;;;;;;;19.90;2.95;;;;;;;-143.98;100.00;68091.63;5097469;28;20095;-82
2021/04/08 00:02:44;;;;;;;19.00;2.72;;;;;;;-143.98;100.00;68091.63;5101661;28;20085;-83
2021/04/08 00:05:13;;;;;;;18.38;3.60;;;;;;;-143.98;100.00;68091.63;5102930;28;20152;-82
2021/04/08 00:07:40;;;;;;;20.67;3.00;;;;;;;-143.98;100.00;68091.63;5101908;28;20063;-82
2021/04/08 00:10:07;;;;;;;24.20;3.03;;;;;;;-143.98;100.00;68091.63;5109945;28;20062;-82
2021/04/08 00:12:33;;;;;;;15.93;3.60;;;;;;;-143.98;100.00;68091.63;5104234;28;20055;-82
2021/04/08 00:15:00;;;;;;;26.38;3.80;;;;;;;-143.98;100.00;68091.63;5105303;28;20386;-83
2021/04/08 00:17:33;;;;;;;19.77;2.90;;;;;;;-143.98;100.00;68091.63;5089751;28;20138;-83
2021/04/08 00:20:03;;;;;;;22.23;3.08;;;;;;;-143.98;100.00;68091.63;5087591;28;20098;-83
2021/04/08 00:22:35;;;;;;;17.58;3.83;;;;;;;-143.98;100.00;68091.63;5074530;28;20051;-83
2021/04/08 00:25:05;;;;;;;20.98;3.47;;;;;;;-143.98;100.00;68091.63;5068454;28;20085;-83
2021/04/08 00:27:31;;;;;;;19.67;3.25;;;;;;;-143.98;100.00;68091.63;5068725;28;20052;-82
2021/04/08 00:29:57;;;;;;;26.00;3.45;;;;;;;-143.98;100.00;68091.63;5067573;28;20047;-82
2021/04/08 00:32:24;;;;;;;20.48;3.38;;;;;;;-143.98;100.00;68091.63;5084410;28;20044;-82
2021/04/08 00:34:54;;;;;;;13.43;2.85;;;;;;;-143.98;100.00;68091.63;5068409;28;20072;-83
2021/04/08 00:37:20;;;;;;;20.75;2.83;;;;;;;-143.98;100.00;68091.63;5067980;28;20044;-83
2021/04/08 00:39:49;;;;;;;27.98;3.42;;;;;;;-143.98;100.00;68091.63;5068492;28;20064;-83
2021/04/08 00:42:19;;;;;;;20.58;3.47;;;;;;;-143.98;100.00;68091.63;5082379;28;20068;-82
2021/04/08 00:44:45;;;;;;;25.33;3.45;;;;;;;-143.98;100.00;68091.63;5067544;28;20056;-83
2021/04/08 00:47:14;;;;;;;16.27;2.65;;;;;;;-143.98;100.00;68091.63;5068393;28;20063;-82
2021/04/08 00:49:43;;;;;;;19.92;3.60;;;;;;;-143.98;100.00;68091.63;5069296;28;20064;-82
2021/04/08 00:52:24;;;;;;;23.60;4.15;;;;;;;-143.98;100.00;68091.63;5067412;28;20479;-82
2021/04/08 00:54:51;;;;;;;36.40;3.85;;;;;;;-143.98;100.00;68091.63;5084916;28;20130;-83
2021/04/08 00:57:18;;;;;;;29.33;3.83;;;;;;;-143.98;100.00;68091.63;5085192;28;20382;-82
2021/04/08 00:59:45;;;;;;;24.67;3.30;;;;;;;-143.98;100.00;68091.63;5066673;28;20386;-84
2021/04/08 01:02:15;;;;;;;30.25;3.75;;;;;;;-143.98;100.00;68091.63;5082053;28;20066;-85
2021/04/08 01:04:41;;;;;;;23.52;3.58;;;;;;;-143.98;100.00;68091.63;5066169;28;20086;-85
2021/04/08 01:07:10;;;;;;;17.85;3.40;;;;;;;-143.98;100.00;68091.63;5066399;28;20117;-85
2021/04/08 01:09:36;;;;;;;29.13;4.38;;;;;;;-143.98;100.00;68091.63;5082897;28;20301;-85
2021/04/08 01:12:05;;;;;;;22.65;3.40;;;;;;;-143.98;100.00;68091.63;5067955;28;20339;-85
2021/04/08 01:14:32;;;;;;;21.08;2.92;;;;;;;-143.98;100.00;68091.63;5101809;28;20058;-85
2021/04/08 01:17:08;;;;;;;20.83;3.28;;;;;;;-143.98;100.00;68091.63;5083902;28;20354;-85
2021/04/08 01:20:07;;;;;;;22.13;2.97;;;;;;;-143.98;100.00;68091.63;5083302;28;20056;-85
2021/04/08 01:22:49;;;;;;;20.20;3.95;;;;;;;-143.98;100.00;68091.63;5116320;28;20070;-86
2021/04/08 01:25:36;;;;;;;20.58;3.17;;;;;;;-143.98;100.00;68091.63;5105020;28;20102;-86
2021/04/08 01:28:27;;;;;;;20.42;3.70;;;;;;;-143.98;100.00;68091.63;5125196;28;20101;-85
2021/04/08 01:30:54;;;;;;;32.42;3.35;;;;;;;-143.98;100.00;68091.63;5118576;28;20282;-85
2021/04/08 01:33:32;;;;;;;15.02;3.65;;;;;;;-143.98;100.00;68091.63;5100337;28;20058;-85
2021/04/08 01:36:11;;;;;;;15.52;2.83;;;;;;;-143.98;100.00;68091.63;5117632;28;20048;-85
2021/04/08 01:38:40;;;;;;;18.17;3.17;;;;;;;-143.98;100.00;68091.63;5115977;28;20077;-86
2021/04/08 01:41:06;;;;;;;25.27;3.42;;;;;;;-143.98;100.00;68091.63;5133929;28;20047;-83
2021/04/08 01:43:36;;;;;;;30.58;4.35;;;;;;;-143.98;100.00;68091.63;5110288;28;20060;-83
2021/04/08 01:46:10;;;;;;;18.05;3.67;;;;;;;-143.98;100.00;68091.63;5089237;28;20385;-84
2021/04/08 01:48:37;;;;;;;16.08;3.20;;;;;;;-143.98;100.00;68091.63;5099215;28;20046;-84
2021/04/08 01:51:05;;;;;;;19.55;2.47;;;;;;;-143.98;100.00;68091.63;5117664;28;20057;-84
2021/04/08 01:53:33;;;;;;;18.35;2.72;;;;;;;-143.98;100.00;68091.63;5095496;28;20055;-84
2021/04/08 01:56:10;;;;;;;;;;;;;;;-143.98;100.00;68091.63;5104231;28;20055;-85
2021/04/08 01:58:40;;;;;;;19.70;4.10;;;;;;;-143.98;100.00;68091.63;5086672;28;20161;-84
2021/04/08 02:01:10;;;;;;;24.83;4.43;;;;;;;-143.98;100.00;68091.63;5111203;28;20055;-84
2021/04/08 02:03:39;;;;;;;24.00;3.58;;;;;;;-143.98;100.00;68091.63;5100811;28;20051;-86
2021/04/08 02:06:10;;;;;;;20.67;4.05;;;;;;;-143.98;100.00;68091.63;5110453;28;20056;-85
2021/04/08 02:08:38;;;;;;;19.60;3.42;;;;;;;-143.98;100.00;68091.63;5088010;28;20140;-85
2021/04/08 02:11:06;;;;;;;14.70;3.45;;;;;;;-143.98;100.00;68091.63;5104606;28;20072;-84
2021/04/08 02:13:32;;;;;;;29.40;4.07;;;;;;;-143.98;100.00;68091.63;5088135;28;20055;-84
2021/04/08 02:15:59;;;;;;;21.90;4.35;;;;;;;-143.98;100.00;68091.63;5105467;28;20080;-86
2021/04/08 02:18:26;;;;;;;27.05;2.72;;;;;;;-143.98;100.00;68091.63;5111949;28;20035;-84
2021/04/08 02:20:53;;;;;;;21.55;3.65;;;;;;;-143.98;100.00;68091.63;5118149;28;20035;-84
2021/04/08 02:23:23;;;;;;;19.65;3.55;;;;;;;-143.98;100.00;68091.63;5090302;28;20374;-85
2021/04/08 02:25:52;;;;;;;19.30;3.47;;;;;;;-143.98;100.00;68091.63;5102651;28;20055;-84
2021/04/08 02:28:20;;;;;;;19.02;3.20;;;;;;;-143.98;100.00;68091.63;5103702;28;20062;-85
2021/04/08 02:30:48;;;;;;;20.75;2.72;;;;;;;-143.98;100.00;68091.63;5104651;28;20389;-85
2021/04/08 02:33:27;;;;;;;21.83;3.17;;;;;;;-143.98;100.00;68091.63;5108761;28;20351;-84
2021/04/08 02:35:58;;;;;;;23.75;3.92;;;;;;;-143.98;100.00;68091.63;5107147;28;20397;-84
2021/04/08 02:38:32;;;;;;;18.02;3.80;;;;;;;-143.98;100.00;68091.63;5107876;28;20060;-85
2021/04/08 02:41:00;;;;;;;19.48;3.05;;;;;;;-143.98;100.00;68091.63;5091951;28;20055;-85
2021/04/08 02:43:26;;;;;;;18.05;2.95;;;;;;;-143.98;100.00;68091.63;5102122;28;20056;-85
2021/04/08 02:45:56;;;;;;;19.70;3.00;;;;;;;-143.98;100.00;68091.63;5119732;28;20044;-85
2021/04/08 02:48:23;;;;;;;21.05;2.67;;;;;;;-143.98;100.00;68091.63;5116481;28;20053;-85
2021/04/08 02:50:57;;;;;;;17.13;2.42;;;;;;;-143.98;100.00;68091.63;5106688;28;20120;-85
2021/04/08 02:53:43;;;;;;;;;;;;;;;-143.98;100.00;68091.63;5125108;28;20373;-86
2021/04/08 02:56:16;;;;;;;16.00;3.88;;;;;;;-143.98;100.00;68091.63;5123046;28;20007;-85
2021/04/08 02:58:46;;;;;;;16.92;2.70;;;;;;;-143.98;100.00;68091.63;5089178;28;20051;-85
2021/04/08 03:01:13;;;;;;;15.95;2.78;;;;;;;-143.98;100.00;68091.63;5088289;28;20066;-85
2021/04/08 03:03:51;;;;;;;14.07;2.05;;;;;;;-143.98;100.00;68091.63;5105104;28;20065;-85
2021/04/08 03:06:18;;;;;;;13.30;3.00;;;;;;;-143.98;100.00;68091.63;5088397;28;20055;-85
2021/04/08 03:08:48;;;;;;;17.23;2.63;;;;;;;-143.98;100.00;68091.63;5088508;28;20408;-83
2021/04/08 03:11:17;;;;;;;19.65;3.30;;;;;;;-143.98;100.00;68091.63;5088382;28;20052;-83
2021/04/08 03:13:44;;;;;;;19.05;3.75;;;;;;;-143.98;100.00;68091.63;5104567;28;20098;-83
2021/04/08 03:16:13;;;;;;;14.05;2.88;;;;;;;-143.98;100.00;68091.63;5104295;28;20059;-83
2021/04/08 03:18:40;;;;;;;19.38;2.92;;;;;;;-143.98;100.00;68091.63;5086737;28;20051;-83
2021/04/08 03:21:07;;;;;;;15.38;2.88;;;;;;;-143.98;100.00;68091.63;5104771;28;20057;-84
2021/04/08 03:23:33;;;;;;;14.60;2.70;;;;;;;-143.98;100.00;68091.63;5104768;28;20055;-84
2021/04/08 03:26:00;;;;;;;13.90;2.92;;;;;;;-143.98;100.00;68091.63;5103673;28;20052;-83
2021/04/08 03:28:27;;;;;;;11.65;2.65;;;;;;;-143.98;100.00;68091.63;5103843;28;20373;-84
2021/04/08 03:30:53;;;;;;;12.25;2.50;;;;;;;-143.98;100.00;68091.63;5087141;28;20095;-84
2021/04/08 03:33:20;;;;;;;15.73;3.45;;;;;;;-143.98;100.00;68091.63;5121169;28;20389;-86
2021/04/08 03:35:47;;;;;;;14.93;2.45;;;;;;;-143.98;100.00;68091.63;5104611;28;20059;-84
2021/04/08 03:38:19;;;;;;;20.02;3.00;;;;;;;-143.98;100.00;68091.63;5107088;28;20103;-86
2021/04/08 03:40:48;;;;;;;13.75;2.70;;;;;;;-143.98;100.00;68091.63;5113843;28;20192;-86
2021/04/08 03:43:14;;;;;;;10.45;2.33;;;;;;;-143.98;100.00;68091.63;5098223;28;20052;-85
2021/04/08 03:45:41;;;;;;;14.77;2.53;;;;;;;-143.98;100.00;68091.63;5097187;28;20175;-85
2021/04/08 03:48:15;;;;;;;16.30;2.90;;;;;;;-143.98;100.00;68091.63;5123747;28;20078;-85
2021/04/08 03:50:42;;;;;;;10.98;3.05;;;;;;;-143.98;100.00;68091.63;5090374;28;20066;-85
2021/04/08 03:53:17;;;;;;;8.82;2.90;;;;;;;-143.98;100.00;68091.63;5098293;28;20052;-84
2021/04/08 03:55:43;;;;;;;24.05;3.63;;;;;;;-143.98;100.00;68091.63;5101023;28;20039;-85
2021/04/08 03:58:11;;;;;;;14.32;2.35;;;;;;;-143.98;100.00;68091.63;5101079;28;20063;-85
2021/04/08 04:00:38;;;;;;;18.92;2.80;;;;;;;-143.98;100.00;68091.63;5117254;28;20051;-85
2021/04/08 04:03:09;;;;;;;21.88;3.15;;;;;;;-143.98;100.00;68091.63;5116892;28;20061;-85
2021/04/08 04:05:40;;;;;;;22.73;3.08;;;;;;;-143.98;100.00;68091.63;5119120;28;20073;-85
2021/04/08 04:08:08;;;;;;;28.55;3.15;;;;;;;-143.98;100.00;68091.63;5101755;28;20120;-84
2021/04/08 04:10:36;;;;;;;19.45;3.78;;;;;;;-143.98;100.00;68091.63;5118370;28;20044;-85
2021/04/08 04:13:28;;;;;;;20.13;2.90;;;;;;;-143.98;100.00;68091.63;5118486;28;20077;-85
2021/04/08 04:15:57;;;;;;;15.93;2.85;;;;;;;-143.98;100.00;68091.63;5101279;28;20098;-84
2021/04/08 04:18:26;;;;;;;20.20;2.75;;;;;;;-143.98;100.00;68091.63;5102409;28;20044;-84
2021/04/08 04:20:53;;;;;;;17.15;2.90;;;;;;;-143.98;100.00;68091.63;5116971;28;20077;-84
2021/04/08 04:23:21;;;;;;;58.33;5.60;;;;;;;-143.98;100.00;68091.63;5117797;28;20039;-85
2021/04/08 04:25:47;;;;;;;24.08;2.78;;;;;;;-143.98;100.00;68091.63;5135008;27;20286;-85
2021/04/08 04:28:14;;;;;;;15.50;2.97;;;;;;;-143.98;100.00;68091.63;5116641;27;20083;-83
2021/04/08 04:30:42;;;;;;;18.48;3.35;;;;;;;-143.98;100.00;68091.63;5100154;28;20040;-85
2021/04/08 04:33:08;;;;;;;32.33;4.45;;;;;;;-143.98;100.00;68091.63;5116639;28;20119;-85
2021/04/08 04:35:34;;;;;;;20.98;3.42;;;;;;;-143.98;100.00;68091.63;5099857;28;20051;-86
2021/04/08 04:38:04;;;;;;;21.88;3.58;;;;;;;-143.98;100.00;68091.63;5115613;28;20054;-84
2021/04/08 04:40:32;;;;;;;16.90;3.92;;;;;;;-143.98;100.00;68091.63;5117084;28;20071;-85
2021/04/08 04:43:01;;;;;;;35.88;4.65;;;;;;;-143.98;100.00;68091.63;5086373;28;20119;-85
2021/04/08 04:45:28;;;;;;;16.27;3.15;;;;;;;-143.98;100.00;68091.63;5102759;28;20295;-85
2021/04/08 04:47:59;;;;;;;31.63;3.85;;;;;;;-143.98;100.00;68091.63;5093998;28;20093;-85
2021/04/08 04:50:27;;;;;;;14.95;3.47;;;;;;;-143.98;100.00;68091.63;5096946;28;20043;-84
2021/04/08 04:53:02;;;;;;;12.80;3.67;;;;;;;-143.98;100.00;68091.63;5099865;28;20278;-84
2021/04/08 04:55:28;;;;;;;20.42;3.15;;;;;;;-143.98;100.00;68091.63;5114851;28;20163;-84
2021/04/08 04:57:55;;;;;;;16.75;4.43;;;;;;;-143.98;100.00;68091.63;5115177;28;20035;-84
2021/04/08 05:00:21;;;;;;;115.65;7.88;;;;;;;-143.98;100.00;68091.63;5094570;28;20052;-84
2021/04/08 05:02:50;;;;;;;49.25;4.90;;;;;;;-143.98;100.00;68091.63;5090078;28;20055;-84
2021/04/08 05:05:20;;;;;;;25.63;3.30;;;;;;;-143.98;100.00;68091.63;5085715;28;20446;-85
2021/04/08 05:07:50;;;;;;;27.60;3.50;;;;;;;-143.98;100.00;68091.63;5103036;28;20055;-84
2021/04/08 05:10:22;;;;;;;18.00;2.65;;;;;;;-143.98;100.00;68091.63;5100816;28;20062;-87
2021/04/08 05:12:48;;;;;;;16.45;3.45;;;;;;;-143.98;100.00;68091.63;5106529;27;20078;-84
2021/04/08 05:15:14;;;;;;;12.85;4.25;;;;;;;-143.98;100.00;68091.63;5113147;27;20050;-85
2021/04/08 05:17:44;;;;;;;17.92;3.65;;;;;;;-143.98;100.00;68091.63;5086586;28;20055;-85
2021/04/08 05:20:14;;;;;;;16.75;3.30;;;;;;;-143.98;100.00;68091.63;5084588;28;20066;-84
2021/04/08 05:22:44;;;;;;;16.73;2.80;;;;;;;-143.98;100.00;68091.63;5085232;28;20055;-85
2021/04/08 05:25:10;;;;;;;11.98;3.28;;;;;;;-143.98;100.00;68091.63;5066377;28;20055;-85
2021/04/08 05:27:40;;;;;;;11.23;3.60;;;;;;;-143.98;100.00;68091.63;5087609;28;20108;-85
2021/04/08 05:30:09;;;;;;;15.10;3.63;;;;;;;-143.98;100.00;68091.63;5077697;28;20040;-86
2021/04/08 05:32:35;;;;;;;12.98;2.40;;;;;;;-143.98;100.00;68091.63;5075262;28;20048;-86
2021/04/08 05:35:03;;;;;;;18.02;2.83;;;;;;;-143.98;100.00;68091.63;5081892;28;20060;-84
2021/04/08 05:37:36;;;;;;;26.73;4.05;;;;;;;-143.98;100.00;68091.63;5081246;28;20448;-85
2021/04/08 05:40:02;;;;;;;10.63;2.10;;;;;;;-143.98;100.00;68091.63;5068008;28;20075;-83
2021/04/08 05:42:31;;;;;;;20.73;2.65;;;;;;;-143.98;100.00;68091.63;5090432;28;20043;-82
2021/04/08 05:44:58;;;;;;;10.68;2.20;;;;;;;-143.98;100.00;68091.63;5068950;28;20048;-84
2021/04/08 05:47:27;;;;;;;11.25;2.40;;;;;;;-143.98;100.00;68091.63;5077169;28;20078;-85
2021/04/08 05:49:54;;;;;;;9.38;2.22;;;;;;;-143.98;100.00;68091.63;5076896;28;20052;-84
2021/04/08 05:52:20;;;;;;;12.13;2.00;;;;;;;-143.98;100.00;68091.63;5058286;28;20047;-84
2021/04/08 05:54:48;;;;;;;13.60;1.88;;;;;;;-143.98;100.00;68091.63;5056657;28;20048;-83
2021/04/08 05:57:18;;;;;;;9.32;2.22;;;;;;;-143.98;100.00;68091.63;5056609;28;20060;-82
2021/04/08 05:59:49;;;;;;;12.95;2.20;;;;;;;-143.98;100.00;68091.63;5057152;28;20048;-82
2021/04/08 06:02:20;;;;;;;10.27;2.20;;;;;;;-143.98;100.00;68091.63;5058021;28;20056;-83
2021/04/08 06:04:46;;;;;;;9.38;2.22;;;;;;;-143.98;100.00;68091.63;5073901;28;20282;-82
2021/04/08 06:07:13;;;;;;;20.67;2.10;;;;;;;-143.98;100.00;68091.63;5075730;28;20155;-83
2021/04/08 06:09:42;;;;;;;10.15;1.95;;;;;;;-143.98;100.00;68091.63;5067283;28;20058;-84
2021/04/08 06:12:09;;;;;;;7.97;2.00;;;;;;;-143.98;100.00;68091.63;5090563;28;20060;-83
2021/04/08 06:14:37;;;;;;;12.13;2.20;;;;;;;-143.98;100.00;68091.63;5091539;28;20056;-84
2021/04/08 06:17:07;;;;;;;13.13;2.20;;;;;;;-143.98;100.00;68091.63;5090926;28;20089;-83
2021/04/08 06:19:33;;;;;;;6.65;2.03;;;;;;;-143.98;100.00;68091.63;5086120;28;20254;-82
2021/04/08 06:22:00;;;;;;;14.82;2.35;;;;;;;-143.98;100.00;68091.63;5060617;28;20641;-83
2021/04/08 06:24:30;;;;;;;14.73;2.65;;;;;;;-143.98;100.00;68091.63;5074026;28;20157;-83
2021/04/08 06:26:56;;;;;;;13.75;2.17;;;;;;;-143.98;100.00;68091.63;5057592;28;20048;-83
2021/04/08 06:29:22;;;;;;;8.50;2.22;;;;;;;-143.98;100.00;68091.63;5058729;28;20078;-83
2021/04/08 06:31:51;;;;;;;12.15;2.38;;;;;;;-143.98;100.00;68091.63;5075481;28;20122;-83
2021/04/08 06:34:17;;;;;;;12.68;2.13;;;;;;;-143.98;100.00;68091.63;5077082;28;20204;-83
2021/04/08 06:36:49;;;;;;;13.23;2.78;;;;;;;-143.98;100.00;68091.63;5062540;28;20079;-83
2021/04/08 06:39:18;;;;;;;12.05;1.92;;;;;;;-143.98;100.00;68091.63;5058542;28;20069;-83
2021/04/08 06:41:51;;;;;;;16.00;2.10;;;;;;;-143.98;100.00;68091.63;5058858;28;20060;-84
2021/04/08 06:44:22;;;;;;;13.93;2.25;;;;;;;-143.98;100.00;68091.63;5057970;28;20060;-84
2021/04/08 06:47:01;;;;;;;14.85;2.88;;;;;;;-143.98;100.00;68091.63;5072869;28;20067;-83
2021/04/08 06:50:05;;;;;;;10.27;2.13;;;;;;;-143.98;100.00;68091.63;5080696;28;20261;-82
2021/04/08 06:52:32;;;;;;;15.40;1.98;;;;;;;-143.98;100.00;68091.63;5032538;28;20083;-83
2021/04/08 06:55:09;;;;;;;13.48;1.80;;;;;;;-143.98;100.00;68091.63;5033358;28;20064;-83
2021/04/08 06:57:42;;;;;;;7.95;2.03;;;;;;;-143.98;100.00;68091.63;5032407;28;20049;-83
2021/04/08 07:00:11;;;;;;;14.70;2.20;;;;;;;-143.98;100.00;68091.63;5032930;28;20132;-83
2021/04/08 07:02:38;;;;;;;8.57;2.00;;;;;;;-143.98;100.00;68091.63;5079567;28;20091;-84
2021/04/08 07:05:06;;;;;;;14.30;2.28;;;;;;;-143.98;100.00;68091.63;5061495;28;20077;-82
2021/04/08 07:07:33;;;;;;;10.15;1.98;;;;;;;-143.98;100.00;68091.63;5063824;28;20078;-82
2021/04/08 07:10:05;;;;;;;13.20;2.10;;;;;;;-143.98;100.00;68091.63;5074296;28;20498;-81
2021/04/08 07:12:34;;;;;;;8.15;1.85;;;;;;;-143.98;100.00;68091.63;5075193;28;20078;-82
2021/04/08 07:15:08;;;;;;;11.40;2.05;;;;;;;-143.98;100.00;68091.63;5075703;28;20052;-83
2021/04/08 07:17:46;;;;;;;7.45;1.38;;;;;;;-143.98;100.00;68091.63;5066340;28;20134;-83
2021/04/08 07:20:13;;;;;;;10.55;2.20;;;;;;;-143.98;100.00;68091.63;5098903;28;20056;-84
2021/04/08 07:22:42;;;;;;;10.30;2.53;;;;;;;-143.98;100.00;68091.63;5079815;28;20090;-82
2021/04/08 07:25:22;;;;;;;7.95;1.70;;;;;;;-143.98;100.00;68091.63;5079551;28;20117;-83
2021/04/08 07:27:49;;;;;;;10.65;2.33;;;;;;;-143.98;100.00;68091.63;5064210;28;20075;-83
2021/04/08 07:30:18;;;;;;;13.10;1.92;;;;;;;-143.98;100.00;68091.63;5063859;28;20332;-82
2021/04/08 07:32:58;;;;;;;12.95;2.78;;;;;;;-143.98;100.00;68091.63;5061981;28;20059;-83
2021/04/08 07:35:24;;;;;;;8.85;1.80;;;;;;;-143.98;100.00;68091.63;5063623;28;20075;-83
2021/04/08 07:38:11;;;;;;;11.82;2.15;;;;;;;-143.98;100.00;68091.63;5096131;28;20056;-82
2021/04/08 07:40:55;;;;;;;7.97;2.33;;;;;;;-143.98;100.00;68091.63;5068619;28;20066;-82
2021/04/08 07:43:21;;;;;;;9.38;2.22;;;;;;;-143.98;100.00;68091.63;5074079;28;20036;-83
2021/04/08 07:45:47;;;;;;;11.93;1.85;;;;;;;-143.98;100.00;68091.63;5090864;28;20063;-83
2021/04/08 07:48:16;;;;;;;9.95;2.00;;;;;;;-143.98;100.00;68091.63;5069368;28;20072;-82
2021/04/08 07:50:56;;;;;;;16.40;3.25;;;;;;;-143.98;100.00;68091.63;5065361;28;20192;-84
2021/04/08 07:53:22;;;;;;;13.13;1.95;;;;;;;-143.98;100.00;68091.63;5080185;28;20056;-83
2021/04/08 07:55:51;;;;;;;9.48;1.92;;;;;;;-143.98;100.00;68091.63;5079055;28;20052;-82
2021/04/08 07:58:17;;;;;;;12.73;2.22;;;;;;;-143.98;100.00;68091.63;5077677;28;20059;-84
2021/04/08 08:00:52;;;;;;;10.98;1.83;;;;;;;-143.98;100.00;68091.63;5095800;28;20117;-83
2021/04/08 08:03:36;;;;;;;8.23;1.67;;;;;;;-143.98;100.00;68091.63;5089092;28;20036;-83
2021/04/08 08:06:07;;;;;;;6.80;1.50;;;;;;;-143.98;100.00;68091.63;5111409;28;20104;-82
2021/04/08 08:08:39;;;;;;;9.30;1.42;;;;;;;-143.98;100.00;68091.63;5076263;28;20048;-83
2021/04/08 08:11:15;;;;;;;12.73;1.95;;;;;;;-143.98;100.00;68091.63;5077899;28;20060;-84
2021/04/08 08:13:48;;;;;;;12.55;1.27;;;;;;;-143.98;100.00;68091.63;5077231;28;20112;-83
2021/04/08 08:16:19;;;;;;;15.48;2.08;;;;;;;-143.98;100.00;68091.63;5106041;28;20052;-84
2021/04/08 08:18:50;;;;;;;13.32;1.75;;;;;;;-143.98;100.00;68091.63;5062874;28;20056;-83
2021/04/08 08:21:40;;;;;;;10.38;1.90;;;;;;;-143.98;100.00;68091.63;5078900;28;20226;-84
2021/04/08 08:24:15;;;;;;;9.43;1.58;;;;;;;-143.98;100.00;68091.63;5082165;28;20055;-84
2021/04/08 08:26:46;;;;;;;3.42;1.25;;;;;;;-143.98;100.00;68091.63;5116958;28;20059;-84
2021/04/08 08:29:19;;;;;;;13.15;1.52;;;;;;;-143.98;100.00;68091.63;5115044;28;20064;-84
2021/04/08 08:31:48;;;;;;;5.15;1.70;;;;;;;-143.98;100.00;68091.63;5116281;28;20056;-84
2021/04/08 08:34:23;;;;;;;8.40;1.30;;;;;;;-143.98;100.00;68091.63;5097910;28;20335;-83
2021/04/08 08:37:20;;;;;;;9.80;1.40;;;;;;;-143.98;100.00;68091.63;5117819;28;20194;-82
2021/04/08 08:39:48;;;;;;;5.00;1.20;;;;;;;-143.98;100.00;68091.63;5103966;28;20082;-84
2021/04/08 08:42:18;;;;;;;9.70;1.25;;;;;;;-143.98;100.00;68091.63;5093877;28;20166;-83
2021/04/08 08:44:53;;;;;;;10.50;1.10;;;;;;;-143.98;100.00;68091.63;5078379;28;20052;-83
2021/04/08 08:47:32;;;;;;;5.75;1.20;;;;;;;-143.98;100.00;68091.63;5078453;28;20056;-83
2021/04/08 08:50:14;;;;;;;5.10;1.38;;;;;;;-143.98;100.00;68091.63;5079304;28;20105;-83
2021/04/08 08:52:55;;;;;;;9.57;1.48;;;;;;;-143.98;100.00;68091.63;5078955;28;20651;-83
2021/04/08 08:55:25;;;;;;;6.22;1.50;;;;;;;-143.98;100.00;68091.63;5078914;28;20082;-83
2021/04/08 08:57:56;;;;;;;5.78;1.42;;;;;;;-143.98;100.00;68091.63;5096342;28;20048;-85
2021/04/08 09:00:27;;;;;;;7.13;1.50;;;;;;;-143.98;100.00;68091.63;5095386;28;20411;-84
2021/04/08 09:03:07;;;;;;;5.30;1.10;;;;;;;-143.98;100.00;68091.63;5096398;28;20055;-84
2021/04/08 09:05:37;;;;;;;5.88;1.30;;;;;;;-143.98;100.00;68091.63;5103292;28;20063;-83
2021/04/08 09:08:13;;;;;;;8.75;1.20;;;;;;;-143.98;100.00;68091.63;5095159;28;20040;-82
2021/04/08 09:10:54;;;;;;;5.72;1.08;;;;;;;-143.98;100.00;68091.63;5110713;28;20078;-84
2021/04/08 09:13:23;;;;;;;5.82;1.38;;;;;;;-143.98;100.00;68091.63;5081192;28;20183;-84
2021/04/08 09:15:50;;;;;;;5.65;1.40;;;;;;;-143.98;100.00;68091.63;5113669;28;20135;-84
2021/04/08 09:18:29;;;;;;;9.23;1.20;;;;;;;-143.98;100.00;68091.63;5101048;28;20039;-84
2021/04/08 09:20:55;;;;;;;6.88;1.38;;;;;;;-143.98;100.00;68091.63;5111925;28;20052;-83
2021/04/08 09:23:23;;;;;;;5.28;1.10;;;;;;;-143.98;100.00;68091.63;5084644;28;20143;-83
2021/04/08 09:25:57;;;;;;;10.65;1.60;;;;;;;-143.98;100.00;68091.63;5077842;28;20062;-83
2021/04/08 09:28:38;;;;;;;5.38;1.60;;;;;;;-143.98;100.00;68091.63;5079671;28;20134;-83
2021/04/08 09:31:20;;;;;;;10.25;1.40;;;;;;;-143.98;100.00;68091.63;5076255;28;20056;-83
2021/04/08 09:33:50;;;;;;;4.85;1.30;;;;;;;-143.98;100.00;68091.63;5081685;28;20056;-83
2021/04/08 09:36:21;;;;;;;4.22;1.52;;;;;;;-143.98;100.00;68091.63;5077445;28;20138;-82
2021/04/08 09:39:22;;;;;;;7.88;1.48;;;;;;;-143.98;100.00;68091.63;5072673;28;20052;-83
2021/04/08 09:42:03;;;;;;;7.75;1.20;;;;;;;-143.98;100.00;68091.63;5054842;28;20184;-83
2021/04/08 09:44:30;;;;;;;4.90;1.35;;;;;;;-143.98;100.00;68091.63;5071925;28;20055;-82
2021/04/08 09:47:07;;;;;;;7.95;1.67;;;;;;;-143.98;100.00;68091.63;5072018;28;20051;-83
2021/04/08 09:49:39;;;;;;;9.60;1.77;;;;;;;-143.98;100.00;68091.63;5089218;28;20056;-82
2021/04/08 09:52:06;;;;;;;5.65;1.23;;;;;;;-143.98;100.00;68091.63;5075297;28;20105;-83
2021/04/08 09:54:51;;;;;;;4.90;1.48;;;;;;;-143.98;100.00;68091.63;5075962;28;20592;-82
2021/04/08 09:57:36;;;;;;;6.05;1.40;;;;;;;-143.98;100.00;68091.63;5073221;28;20403;-82
2021/04/08 10:00:07;;;;;;;7.72;1.25;;;;;;;-143.98;100.00;68091.63;5092730;28;20471;-83
2021/04/08 10:02:34;;;;;;;6.43;1.27;;;;;;;-143.98;100.00;68091.63;5059050;28;20108;-82
2021/04/08 10:05:14;;;;;;;6.70;1.60;;;;;;;-143.98;100.00;68091.63;5076176;28;20063;-82
2021/04/08 10:07:54;;;;;;;12.85;1.27;;;;;;;-143.98;100.00;68091.63;5079054;28;20355;-83
2021/04/08 10:10:40;;;;;;;8.10;1.10;;;;;;;-143.98;100.00;68091.63;5092592;28;20060;-82
2021/04/08 10:13:29;;;;;;;4.05;1.25;;;;;;;-143.98;100.00;68091.63;5074686;28;20044;-83
2021/04/08 10:16:00;;;;;;;5.95;1.20;;;;;;;-143.98;100.00;68091.63;5060013;28;20040;-83
2021/04/08 10:18:29;;;;;;;7.00;1.27;;;;;;;-143.98;100.00;68091.63;5093660;28;20135;-83
2021/04/08 10:21:00;;;;;;;6.47;1.08;;;;;;;-143.98;100.00;68091.63;5079797;28;20060;-83
2021/04/08 10:23:51;;;;;;;7.32;1.33;;;;;;;-143.98;100.00;68091.63;5058708;28;20235;-83
2021/04/08 10:26:23;;;;;;;5.97;1.27;;;;;;;-143.98;100.00;68091.63;5074877;28;20060;-83
2021/04/08 10:29:00;;;;;;;10.73;1.58;;;;;;;-143.98;100.00;68091.63;5078089;28;20048;-82
2021/04/08 10:31:33;;;;;;;9.60;1.48;;;;;;;-143.98;100.00;68091.63;5073143;28;20064;-83
2021/04/08 10:34:06;;;;;;;11.90;1.67;;;;;;;-143.98;100.00;68091.63;5090550;28;20422;-83
2021/04/08 10:36:58;;;;;;;6.20;1.52;;;;;;;-143.98;100.00;68091.63;5057720;28;20048;-82
2021/04/08 10:39:39;;;;;;;10.38;1.67;;;;;;;-143.98;100.00;68091.63;5091709;28;20137;-83
2021/04/08 10:42:19;;;;;;;12.48;1.75;;;;;;;-143.98;100.00;68091.63;5093138;28;20109;-82
2021/04/08 10:44:47;;;;;;;8.48;1.30;;;;;;;-143.98;100.00;68091.63;5076135;28;20055;-83
2021/04/08 10:47:20;;;;;;;9.63;1.58;;;;;;;-143.98;100.00;68091.63;5071833;28;20060;-83
2021/04/08 10:50:03;;;;;;;8.30;1.65;;;;;;;-143.98;100.00;68091.63;5055780;28;20336;-83
2021/04/08 10:52:38;;;;;;;13.63;1.35;;;;;;;-143.98;100.00;68091.63;5076877;28;20060;-83
2021/04/08 10:55:09;;;;;;;7.27;1.30;;;;;;;-143.98;100.00;68091.63;5062276;28;20063;-83
2021/04/08 10:57:42;;;;;;;6.30;1.20;;;;;;;-143.98;100.00;68091.63;5095407;28;20056;-83
2021/04/08 11:00:10;;;;;;;10.48;1.50;;;;;;;-143.98;100.00;68091.63;5084914;28;20094;-82
2021/04/08 11:02:46;;;;;;;5.85;1.65;;;;;;;-143.98;100.00;68091.63;5108094;28;20054;-82
2021/04/08 11:05:21;;;;;;;3.08;1.10;;;;;;;-143.98;100.00;68091.63;5076585;28;20048;-83
2021/04/08 11:07:55;;;;;;;6.40;1.50;;;;;;;-143.98;100.00;68091.63;5063245;28;20060;-82
2021/04/08 11:10:26;;;;;;;8.15;1.25;;;;;;;-143.98;100.00;68091.63;5064482;28;20059;-83
2021/04/08 11:12:54;;;;;;;7.38;1.48;;;;;;;-143.98;100.00;68091.63;5095382;28;20416;-83
2021/04/08 11:15:26;;;;;;;5.45;1.35;;;;;;;-143.98;100.00;68091.63;5077015;28;20091;-83
2021/04/08 11:18:00;;;;;;;4.75;1.35;;;;;;;-143.98;100.00;68091.63;5097817;28;20056;-83
2021/04/08 11:20:34;;;;;;;7.03;1.35;;;;;;;-143.98;100.00;68091.63;5072136;28;20075;-82
2021/04/08 11:23:04;;;;;;;5.20;1.48;;;;;;;-143.98;100.00;68091.63;5094056;28;20103;-83